sensor_id;sensor_type;location;lat;lon;timestamp;temperature;humidity
23556;DHT22;11956;53.184;8.578;2023-07-31T00:00:59;16.60;99.90
23556;DHT22;11956;53.184;8.578;2023-07-31T00:04:00;16.60;99.90
23556;DHT22;11956;53.184;8.578;2023-07-31T00:07:01;16.60;99.90
23556;DHT22;11956;53.184;8.578;2023-07-31T00:10:05;16.60;99.90
23556;DHT22;11956;53.184;8.578;2023-07-31T00:13:06;16.60;99.90
23556;DHT22;11956;53.184;8.578;2023-07-31T00:16:07;16.70;99.90
23556;DHT22;11956;53.184;8.578;2023-07-31T00:19:08;16.70;99.90
23556;DHT22;11956;53.184;8.578;2023-07-31T00:22:09;16.70;99.90
23556;DHT22;11956;53.184;8.578;2023-07-31T00:25:10;16.70;99.90
23556;DHT22;11956;53.184;8.578;2023-07-31T00:28:11;16.70;99.90
23556;DHT22;11956;53.184;8.578;2023-07-31T00:31:13;16.70;99.90
23556;DHT22;11956;53.184;8.578;2023-07-31T00:34:14;16.70;99.90
23556;DHT22;11956;53.184;8.578;2023-07-31T00:37:15;16.70;99.90
23556;DHT22;11956;53.184;8.578;2023-07-31T00:40:16;16.70;99.90
23556;DHT22;11956;53.184;8.578;2023-07-31T00:43:17;16.60;99.90
23556;DHT22;11956;53.184;8.578;2023-07-31T00:46:18;16.60;99.90
23556;DHT22;11956;53.184;8.578;2023-07-31T00:49:19;16.70;99.90
23556;DHT22;11956;53.184;8.578;2023-07-31T00:52:21;16.60;99.90
23556;DHT22;11956;53.184;8.578;2023-07-31T00:55:22;16.60;99.90
23556;DHT22;11956;53.184;8.578;2023-07-31T00:58:24;16.70;99.90
23556;DHT22;11956;53.184;8.578;2023-07-31T01:01:27;16.70;99.90
23556;DHT22;11956;53.184;8.578;2023-07-31T01:04:28;16.70;99.90
23556;DHT22;11956;53.184;8.578;2023-07-31T01:07:39;16.60;99.90
23556;DHT22;11956;53.184;8.578;2023-07-31T01:10:57;16.60;99.90
23556;DHT22;11956;53.184;8.578;2023-07-31T01:14:04;16.70;99.90
23556;DHT22;11956;53.184;8.578;2023-07-31T01:17:06;16.70;99.90
23556;DHT22;11956;53.184;8.578;2023-07-31T01:20:13;16.70;99.90
23556;DHT22;11956;53.184;8.578;2023-07-31T01:26:43;16.80;99.90
23556;DHT22;11956;53.184;8.578;2023-07-31T01:30:03;16.80;99.90
23556;DHT22;11956;53.184;8.578;2023-07-31T01:33:11;16.80;99.90
23556;DHT22;11956;53.184;8.578;2023-07-31T01:36:12;16.80;99.90
23556;DHT22;11956;53.184;8.578;2023-07-31T01:39:14;16.80;99.90
23556;DHT22;11956;53.184;8.578;2023-07-31T01:42:16;16.70;99.90
23556;DHT22;11956;53.184;8.578;2023-07-31T01:45:17;16.80;99.90
23556;DHT22;11956;53.184;8.578;2023-07-31T01:51:23;16.70;99.90
23556;DHT22;11956;53.184;8.578;2023-07-31T01:54:24;16.70;99.90
23556;DHT22;11956;53.184;8.578;2023-07-31T01:57:25;16.70;99.90
23556;DHT22;11956;53.184;8.578;2023-07-31T02:00:26;16.70;99.90
23556;DHT22;11956;53.184;8.578;2023-07-31T02:03:27;16.60;99.90
23556;DHT22;11956;53.184;8.578;2023-07-31T02:06:29;16.50;99.90
23556;DHT22;11956;53.184;8.578;2023-07-31T02:09:30;16.30;99.90
23556;DHT22;11956;53.184;8.578;2023-07-31T02:12:31;16.20;99.90
23556;DHT22;11956;53.184;8.578;2023-07-31T02:15:32;16.10;99.90
23556;DHT22;11956;53.184;8.578;2023-07-31T02:18:34;16.00;99.90
23556;DHT22;11956;53.184;8.578;2023-07-31T02:21:36;16.00;99.90
23556;DHT22;11956;53.184;8.578;2023-07-31T02:24:37;15.90;99.90
23556;DHT22;11956;53.184;8.578;2023-07-31T02:27:38;15.80;99.90
23556;DHT22;11956;53.184;8.578;2023-07-31T02:30:39;15.70;99.90
23556;DHT22;11956;53.184;8.578;2023-07-31T02:33:40;15.70;99.90
23556;DHT22;11956;53.184;8.578;2023-07-31T02:36:41;15.60;99.90
23556;DHT22;11956;53.184;8.578;2023-07-31T02:39:42;15.50;99.90
23556;DHT22;11956;53.184;8.578;2023-07-31T02:42:43;15.50;99.90
23556;DHT22;11956;53.184;8.578;2023-07-31T02:45:45;15.50;99.90
23556;DHT22;11956;53.184;8.578;2023-07-31T02:48:46;15.50;99.90
23556;DHT22;11956;53.184;8.578;2023-07-31T02:51:47;15.40;99.90
23556;DHT22;11956;53.184;8.578;2023-07-31T02:54:48;15.40;99.90
23556;DHT22;11956;53.184;8.578;2023-07-31T02:57:49;15.40;99.90
23556;DHT22;11956;53.184;8.578;2023-07-31T03:00:51;15.40;99.90
23556;DHT22;11956;53.184;8.578;2023-07-31T03:03:52;15.40;99.90
23556;DHT22;11956;53.184;8.578;2023-07-31T03:06:52;15.40;99.90
23556;DHT22;11956;53.184;8.578;2023-07-31T03:09:53;15.40;99.90
23556;DHT22;11956;53.184;8.578;2023-07-31T03:12:55;15.40;99.90
23556;DHT22;11956;53.184;8.578;2023-07-31T03:15:56;15.40;99.90
23556;DHT22;11956;53.184;8.578;2023-07-31T03:18:57;15.30;99.90
23556;DHT22;11956;53.184;8.578;2023-07-31T03:21:58;15.30;99.90
23556;DHT22;11956;53.184;8.578;2023-07-31T03:25:00;15.30;99.90
23556;DHT22;11956;53.184;8.578;2023-07-31T03:28:04;15.20;99.90
23556;DHT22;11956;53.184;8.578;2023-07-31T03:31:05;15.30;99.90
23556;DHT22;11956;53.184;8.578;2023-07-31T03:34:06;15.30;99.90
23556;DHT22;11956;53.184;8.578;2023-07-31T03:37:07;15.20;99.90
23556;DHT22;11956;53.184;8.578;2023-07-31T03:40:10;15.20;99.90
23556;DHT22;11956;53.184;8.578;2023-07-31T03:43:12;15.20;99.90
23556;DHT22;11956;53.184;8.578;2023-07-31T03:46:14;15.20;99.90
23556;DHT22;11956;53.184;8.578;2023-07-31T03:49:15;15.20;99.90
23556;DHT22;11956;53.184;8.578;2023-07-31T03:52:15;15.20;99.90
23556;DHT22;11956;53.184;8.578;2023-07-31T03:55:16;15.30;99.90
23556;DHT22;11956;53.184;8.578;2023-07-31T03:58:18;15.30;99.90
23556;DHT22;11956;53.184;8.578;2023-07-31T04:01:19;15.30;99.90
23556;DHT22;11956;53.184;8.578;2023-07-31T04:04:20;15.30;99.90
23556;DHT22;11956;53.184;8.578;2023-07-31T04:07:21;15.30;99.90
23556;DHT22;11956;53.184;8.578;2023-07-31T04:10:22;15.30;99.90
23556;DHT22;11956;53.184;8.578;2023-07-31T04:13:23;15.30;99.90
23556;DHT22;11956;53.184;8.578;2023-07-31T04:16:24;15.30;99.90
23556;DHT22;11956;53.184;8.578;2023-07-31T04:19:25;15.30;99.90
23556;DHT22;11956;53.184;8.578;2023-07-31T04:22:26;15.30;99.90
23556;DHT22;11956;53.184;8.578;2023-07-31T04:25:27;15.30;99.90
23556;DHT22;11956;53.184;8.578;2023-07-31T04:28:28;15.40;99.90
23556;DHT22;11956;53.184;8.578;2023-07-31T04:31:33;15.40;99.90
23556;DHT22;11956;53.184;8.578;2023-07-31T04:34:34;15.40;99.90
23556;DHT22;11956;53.184;8.578;2023-07-31T04:37:35;15.40;99.90
23556;DHT22;11956;53.184;8.578;2023-07-31T04:40:36;15.40;99.90
23556;DHT22;11956;53.184;8.578;2023-07-31T04:43:37;15.40;99.90
23556;DHT22;11956;53.184;8.578;2023-07-31T04:46:39;15.40;99.90
23556;DHT22;11956;53.184;8.578;2023-07-31T04:49:40;15.40;99.90
23556;DHT22;11956;53.184;8.578;2023-07-31T04:52:42;15.40;99.90
23556;DHT22;11956;53.184;8.578;2023-07-31T04:55:43;15.50;99.90
23556;DHT22;11956;53.184;8.578;2023-07-31T04:58:44;15.50;99.90
23556;DHT22;11956;53.184;8.578;2023-07-31T05:01:45;15.40;99.90
23556;DHT22;11956;53.184;8.578;2023-07-31T05:04:46;15.50;99.90
23556;DHT22;11956;53.184;8.578;2023-07-31T05:07:47;15.50;99.90
23556;DHT22;11956;53.184;8.578;2023-07-31T05:10:48;15.50;99.90
23556;DHT22;11956;53.184;8.578;2023-07-31T05:13:49;15.50;99.90
23556;DHT22;11956;53.184;8.578;2023-07-31T05:16:50;15.50;99.90
23556;DHT22;11956;53.184;8.578;2023-07-31T05:19:51;15.50;99.90
23556;DHT22;11956;53.184;8.578;2023-07-31T05:22:52;15.50;99.90
23556;DHT22;11956;53.184;8.578;2023-07-31T05:25:53;15.50;99.90
23556;DHT22;11956;53.184;8.578;2023-07-31T05:28:54;15.60;99.90
23556;DHT22;11956;53.184;8.578;2023-07-31T05:31:55;15.60;99.90
23556;DHT22;11956;53.184;8.578;2023-07-31T05:34:56;15.60;99.90
23556;DHT22;11956;53.184;8.578;2023-07-31T05:37:57;15.60;99.90
23556;DHT22;11956;53.184;8.578;2023-07-31T05:40:58;15.60;99.90
23556;DHT22;11956;53.184;8.578;2023-07-31T05:43:59;15.70;99.90
23556;DHT22;11956;53.184;8.578;2023-07-31T05:47:00;15.90;99.90
23556;DHT22;11956;53.184;8.578;2023-07-31T05:50:01;15.90;99.90
23556;DHT22;11956;53.184;8.578;2023-07-31T05:53:02;15.90;99.90
23556;DHT22;11956;53.184;8.578;2023-07-31T05:56:03;15.80;99.90
23556;DHT22;11956;53.184;8.578;2023-07-31T05:59:05;15.90;99.90
23556;DHT22;11956;53.184;8.578;2023-07-31T06:02:06;16.00;99.90
23556;DHT22;11956;53.184;8.578;2023-07-31T06:05:07;15.90;99.90
23556;DHT22;11956;53.184;8.578;2023-07-31T06:08:08;15.90;99.90
23556;DHT22;11956;53.184;8.578;2023-07-31T06:11:09;15.90;99.90
23556;DHT22;11956;53.184;8.578;2023-07-31T06:14:10;16.00;99.90
23556;DHT22;11956;53.184;8.578;2023-07-31T06:17:11;16.00;99.90
23556;DHT22;11956;53.184;8.578;2023-07-31T06:20:12;16.00;99.90
23556;DHT22;11956;53.184;8.578;2023-07-31T06:23:13;16.00;99.90
23556;DHT22;11956;53.184;8.578;2023-07-31T06:26:14;16.10;99.90
23556;DHT22;11956;53.184;8.578;2023-07-31T06:29:15;16.10;99.90
23556;DHT22;11956;53.184;8.578;2023-07-31T06:32:16;16.10;99.90
23556;DHT22;11956;53.184;8.578;2023-07-31T06:35:22;16.10;99.90
23556;DHT22;11956;53.184;8.578;2023-07-31T06:38:25;16.10;99.90
23556;DHT22;11956;53.184;8.578;2023-07-31T06:41:27;16.10;99.90
23556;DHT22;11956;53.184;8.578;2023-07-31T06:44:28;16.10;99.90
23556;DHT22;11956;53.184;8.578;2023-07-31T06:47:29;16.20;99.90
23556;DHT22;11956;53.184;8.578;2023-07-31T06:50:31;16.20;99.90
23556;DHT22;11956;53.184;8.578;2023-07-31T06:53:32;16.20;99.90
23556;DHT22;11956;53.184;8.578;2023-07-31T06:56:33;16.30;99.90
23556;DHT22;11956;53.184;8.578;2023-07-31T06:59:34;16.40;99.90
23556;DHT22;11956;53.184;8.578;2023-07-31T07:02:35;16.40;99.90
23556;DHT22;11956;53.184;8.578;2023-07-31T07:05:36;16.40;99.90
23556;DHT22;11956;53.184;8.578;2023-07-31T07:08:36;16.40;99.90
23556;DHT22;11956;53.184;8.578;2023-07-31T07:11:37;16.50;99.90
23556;DHT22;11956;53.184;8.578;2023-07-31T07:14:39;16.60;99.90
23556;DHT22;11956;53.184;8.578;2023-07-31T07:17:39;16.60;99.90
23556;DHT22;11956;53.184;8.578;2023-07-31T07:20:46;16.60;99.90
23556;DHT22;11956;53.184;8.578;2023-07-31T07:23:50;16.70;99.90
23556;DHT22;11956;53.184;8.578;2023-07-31T07:26:51;16.70;99.90
23556;DHT22;11956;53.184;8.578;2023-07-31T07:29:52;16.70;99.90
23556;DHT22;11956;53.184;8.578;2023-07-31T07:32:54;16.60;99.90
23556;DHT22;11956;53.184;8.578;2023-07-31T07:35:54;16.60;99.90
23556;DHT22;11956;53.184;8.578;2023-07-31T07:38:55;16.50;99.90
23556;DHT22;11956;53.184;8.578;2023-07-31T07:41:58;16.60;99.90
23556;DHT22;11956;53.184;8.578;2023-07-31T07:44:59;16.60;99.90
23556;DHT22;11956;53.184;8.578;2023-07-31T07:48:00;16.70;99.90
23556;DHT22;11956;53.184;8.578;2023-07-31T07:51:01;16.70;99.90
23556;DHT22;11956;53.184;8.578;2023-07-31T07:54:02;16.80;99.90
23556;DHT22;11956;53.184;8.578;2023-07-31T07:57:03;16.70;99.90
23556;DHT22;11956;53.184;8.578;2023-07-31T08:00:05;16.80;99.90
23556;DHT22;11956;53.184;8.578;2023-07-31T08:03:14;16.80;99.90
23556;DHT22;11956;53.184;8.578;2023-07-31T08:06:15;16.90;99.90
23556;DHT22;11956;53.184;8.578;2023-07-31T08:09:16;17.00;99.90
23556;DHT22;11956;53.184;8.578;2023-07-31T08:12:17;17.10;99.90
23556;DHT22;11956;53.184;8.578;2023-07-31T08:15:18;17.20;99.90
23556;DHT22;11956;53.184;8.578;2023-07-31T08:18:19;17.20;99.90
23556;DHT22;11956;53.184;8.578;2023-07-31T08:21:21;17.20;99.90
23556;DHT22;11956;53.184;8.578;2023-07-31T08:24:22;17.20;99.90
23556;DHT22;11956;53.184;8.578;2023-07-31T08:27:23;17.30;99.90
23556;DHT22;11956;53.184;8.578;2023-07-31T08:30:24;17.50;99.90
23556;DHT22;11956;53.184;8.578;2023-07-31T08:33:25;17.60;99.90
23556;DHT22;11956;53.184;8.578;2023-07-31T08:36:26;18.00;99.90
23556;DHT22;11956;53.184;8.578;2023-07-31T08:39:27;18.10;99.90
23556;DHT22;11956;53.184;8.578;2023-07-31T08:42:28;17.90;99.90
23556;DHT22;11956;53.184;8.578;2023-07-31T08:45:30;17.90;99.90
23556;DHT22;11956;53.184;8.578;2023-07-31T08:48:32;18.00;99.90
23556;DHT22;11956;53.184;8.578;2023-07-31T08:51:34;17.90;99.90
23556;DHT22;11956;53.184;8.578;2023-07-31T08:54:36;18.00;99.90
23556;DHT22;11956;53.184;8.578;2023-07-31T08:57:38;18.10;99.90
23556;DHT22;11956;53.184;8.578;2023-07-31T09:00:40;18.10;99.90
23556;DHT22;11956;53.184;8.578;2023-07-31T09:03:42;18.30;99.90
23556;DHT22;11956;53.184;8.578;2023-07-31T09:06:44;18.50;99.90
23556;DHT22;11956;53.184;8.578;2023-07-31T09:09:46;18.60;99.90
23556;DHT22;11956;53.184;8.578;2023-07-31T09:12:47;18.60;99.90
23556;DHT22;11956;53.184;8.578;2023-07-31T09:15:49;18.50;99.90
23556;DHT22;11956;53.184;8.578;2023-07-31T09:18:57;18.20;99.90
23556;DHT22;11956;53.184;8.578;2023-07-31T09:21:59;18.10;99.90
23556;DHT22;11956;53.184;8.578;2023-07-31T09:25:20;18.00;99.90
23556;DHT22;11956;53.184;8.578;2023-07-31T09:28:24;18.00;99.90
23556;DHT22;11956;53.184;8.578;2023-07-31T09:31:42;17.90;99.90
23556;DHT22;11956;53.184;8.578;2023-07-31T09:34:43;17.80;99.90
23556;DHT22;11956;53.184;8.578;2023-07-31T09:37:51;17.80;99.90
23556;DHT22;11956;53.184;8.578;2023-07-31T09:42:05;17.70;99.90
23556;DHT22;11956;53.184;8.578;2023-07-31T09:45:07;17.70;99.90
23556;DHT22;11956;53.184;8.578;2023-07-31T09:48:13;17.80;99.90
23556;DHT22;11956;53.184;8.578;2023-07-31T09:51:26;17.90;99.90
23556;DHT22;11956;53.184;8.578;2023-07-31T09:54:27;18.10;99.90
23556;DHT22;11956;53.184;8.578;2023-07-31T09:57:29;18.30;99.90
23556;DHT22;11956;53.184;8.578;2023-07-31T10:00:31;18.60;99.90
23556;DHT22;11956;53.184;8.578;2023-07-31T10:03:32;18.60;99.90
23556;DHT22;11956;53.184;8.578;2023-07-31T10:06:35;18.60;99.90
23556;DHT22;11956;53.184;8.578;2023-07-31T10:09:36;18.50;99.90
23556;DHT22;11956;53.184;8.578;2023-07-31T10:12:37;18.70;99.90
23556;DHT22;11956;53.184;8.578;2023-07-31T10:15:38;18.70;99.90
23556;DHT22;11956;53.184;8.578;2023-07-31T10:18:41;18.60;99.90
23556;DHT22;11956;53.184;8.578;2023-07-31T10:21:43;18.50;99.90
23556;DHT22;11956;53.184;8.578;2023-07-31T10:24:50;18.40;99.90
23556;DHT22;11956;53.184;8.578;2023-07-31T10:27:54;18.50;99.90
23556;DHT22;11956;53.184;8.578;2023-07-31T10:30:55;18.50;99.90
23556;DHT22;11956;53.184;8.578;2023-07-31T10:33:58;18.70;99.90
23556;DHT22;11956;53.184;8.578;2023-07-31T10:40:30;18.70;99.90
23556;DHT22;11956;53.184;8.578;2023-07-31T10:43:33;18.80;99.90
23556;DHT22;11956;53.184;8.578;2023-07-31T10:46:33;18.90;99.90
23556;DHT22;11956;53.184;8.578;2023-07-31T10:49:35;18.90;99.90
23556;DHT22;11956;53.184;8.578;2023-07-31T10:52:36;19.20;99.90
23556;DHT22;11956;53.184;8.578;2023-07-31T10:55:41;19.40;99.90
23556;DHT22;11956;53.184;8.578;2023-07-31T10:58:44;19.50;99.90
23556;DHT22;11956;53.184;8.578;2023-07-31T11:01:57;19.50;99.90
23556;DHT22;11956;53.184;8.578;2023-07-31T11:05:10;19.50;99.90
23556;DHT22;11956;53.184;8.578;2023-07-31T11:08:22;19.70;99.90
23556;DHT22;11956;53.184;8.578;2023-07-31T11:11:24;19.80;99.90
23556;DHT22;11956;53.184;8.578;2023-07-31T11:14:25;19.80;99.90
23556;DHT22;11956;53.184;8.578;2023-07-31T11:17:26;19.70;99.90
23556;DHT22;11956;53.184;8.578;2023-07-31T11:20:29;19.60;99.90
23556;DHT22;11956;53.184;8.578;2023-07-31T11:23:31;19.70;99.90
23556;DHT22;11956;53.184;8.578;2023-07-31T11:26:32;19.80;99.90
23556;DHT22;11956;53.184;8.578;2023-07-31T11:29:34;19.80;99.90
23556;DHT22;11956;53.184;8.578;2023-07-31T11:32:36;19.80;99.90
23556;DHT22;11956;53.184;8.578;2023-07-31T11:35:46;19.60;99.90
23556;DHT22;11956;53.184;8.578;2023-07-31T11:38:48;19.50;99.90
23556;DHT22;11956;53.184;8.578;2023-07-31T11:41:49;19.50;99.90
23556;DHT22;11956;53.184;8.578;2023-07-31T11:44:50;19.50;99.90
23556;DHT22;11956;53.184;8.578;2023-07-31T11:47:51;19.50;99.90
23556;DHT22;11956;53.184;8.578;2023-07-31T11:50:55;19.40;99.90
23556;DHT22;11956;53.184;8.578;2023-07-31T11:54:00;19.20;99.90
23556;DHT22;11956;53.184;8.578;2023-07-31T11:57:02;19.00;99.90
23556;DHT22;11956;53.184;8.578;2023-07-31T12:00:04;18.90;99.90
23556;DHT22;11956;53.184;8.578;2023-07-31T12:03:07;18.80;99.90
23556;DHT22;11956;53.184;8.578;2023-07-31T12:06:08;18.90;99.90
23556;DHT22;11956;53.184;8.578;2023-07-31T12:09:09;18.90;99.90
23556;DHT22;11956;53.184;8.578;2023-07-31T12:12:10;18.90;99.90
23556;DHT22;11956;53.184;8.578;2023-07-31T12:15:15;19.00;99.90
23556;DHT22;11956;53.184;8.578;2023-07-31T12:18:19;19.00;99.90
23556;DHT22;11956;53.184;8.578;2023-07-31T12:21:21;18.90;99.90
23556;DHT22;11956;53.184;8.578;2023-07-31T12:24:22;18.90;99.90
23556;DHT22;11956;53.184;8.578;2023-07-31T12:27:23;19.00;99.90
23556;DHT22;11956;53.184;8.578;2023-07-31T12:30:31;19.00;99.90
23556;DHT22;11956;53.184;8.578;2023-07-31T12:33:36;19.00;99.90
23556;DHT22;11956;53.184;8.578;2023-07-31T12:36:39;19.10;99.90
23556;DHT22;11956;53.184;8.578;2023-07-31T12:39:40;19.10;99.90
23556;DHT22;11956;53.184;8.578;2023-07-31T12:42:41;19.20;99.90
23556;DHT22;11956;53.184;8.578;2023-07-31T12:45:42;19.30;99.90
23556;DHT22;11956;53.184;8.578;2023-07-31T12:48:43;19.30;99.90
23556;DHT22;11956;53.184;8.578;2023-07-31T12:51:44;19.30;99.90
23556;DHT22;11956;53.184;8.578;2023-07-31T12:54:45;19.40;99.90
23556;DHT22;11956;53.184;8.578;2023-07-31T12:57:47;19.30;99.90
23556;DHT22;11956;53.184;8.578;2023-07-31T13:00:47;19.40;99.90
23556;DHT22;11956;53.184;8.578;2023-07-31T13:03:48;19.50;99.90
23556;DHT22;11956;53.184;8.578;2023-07-31T13:06:49;19.60;99.90
23556;DHT22;11956;53.184;8.578;2023-07-31T13:09:50;19.80;99.90
23556;DHT22;11956;53.184;8.578;2023-07-31T13:12:51;19.80;99.90
23556;DHT22;11956;53.184;8.578;2023-07-31T13:15:52;19.90;99.90
23556;DHT22;11956;53.184;8.578;2023-07-31T13:18:53;20.00;99.90
23556;DHT22;11956;53.184;8.578;2023-07-31T13:21:54;20.00;99.90
23556;DHT22;11956;53.184;8.578;2023-07-31T13:24:55;20.00;99.90
23556;DHT22;11956;53.184;8.578;2023-07-31T13:27:56;19.90;99.90
23556;DHT22;11956;53.184;8.578;2023-07-31T13:31:28;19.70;99.90
23556;DHT22;11956;53.184;8.578;2023-07-31T13:34:29;19.70;99.90
23556;DHT22;11956;53.184;8.578;2023-07-31T13:37:30;19.60;99.90
23556;DHT22;11956;53.184;8.578;2023-07-31T13:40:31;19.50;99.90
23556;DHT22;11956;53.184;8.578;2023-07-31T13:43:32;19.40;99.90
23556;DHT22;11956;53.184;8.578;2023-07-31T13:46:33;19.20;99.90
23556;DHT22;11956;53.184;8.578;2023-07-31T13:49:35;19.10;99.90
23556;DHT22;11956;53.184;8.578;2023-07-31T13:52:36;19.00;99.90
23556;DHT22;11956;53.184;8.578;2023-07-31T13:55:37;19.00;99.90
23556;DHT22;11956;53.184;8.578;2023-07-31T13:58:38;19.00;99.90
23556;DHT22;11956;53.184;8.578;2023-07-31T14:01:39;18.90;99.90
23556;DHT22;11956;53.184;8.578;2023-07-31T14:04:40;18.90;99.90
23556;DHT22;11956;53.184;8.578;2023-07-31T14:07:41;18.90;99.90
23556;DHT22;11956;53.184;8.578;2023-07-31T14:10:42;18.90;99.90
23556;DHT22;11956;53.184;8.578;2023-07-31T14:13:43;18.80;99.90
23556;DHT22;11956;53.184;8.578;2023-07-31T14:16:44;18.90;99.90
23556;DHT22;11956;53.184;8.578;2023-07-31T14:19:45;18.90;99.90
23556;DHT22;11956;53.184;8.578;2023-07-31T14:22:47;18.90;99.90
23556;DHT22;11956;53.184;8.578;2023-07-31T14:25:48;18.80;99.90
23556;DHT22;11956;53.184;8.578;2023-07-31T14:28:49;18.70;99.90
23556;DHT22;11956;53.184;8.578;2023-07-31T14:31:50;18.60;99.90
23556;DHT22;11956;53.184;8.578;2023-07-31T14:34:51;18.60;99.90
23556;DHT22;11956;53.184;8.578;2023-07-31T14:37:52;18.50;99.90
23556;DHT22;11956;53.184;8.578;2023-07-31T14:40:53;18.60;99.90
23556;DHT22;11956;53.184;8.578;2023-07-31T14:43:54;18.60;99.90
23556;DHT22;11956;53.184;8.578;2023-07-31T14:46:55;18.50;99.90
23556;DHT22;11956;53.184;8.578;2023-07-31T14:49:56;18.50;99.90
23556;DHT22;11956;53.184;8.578;2023-07-31T14:52:57;18.30;99.90
23556;DHT22;11956;53.184;8.578;2023-07-31T14:55:58;18.30;99.90
23556;DHT22;11956;53.184;8.578;2023-07-31T14:58:59;18.40;99.90
23556;DHT22;11956;53.184;8.578;2023-07-31T15:02:00;18.60;99.90
23556;DHT22;11956;53.184;8.578;2023-07-31T15:05:02;19.00;99.90
23556;DHT22;11956;53.184;8.578;2023-07-31T15:08:03;19.30;99.90
23556;DHT22;11956;53.184;8.578;2023-07-31T15:11:05;19.40;99.90
23556;DHT22;11956;53.184;8.578;2023-07-31T15:14:06;19.40;99.90
23556;DHT22;11956;53.184;8.578;2023-07-31T15:17:07;19.30;99.90
23556;DHT22;11956;53.184;8.578;2023-07-31T15:20:09;19.30;99.90
23556;DHT22;11956;53.184;8.578;2023-07-31T15:23:11;19.30;99.90
23556;DHT22;11956;53.184;8.578;2023-07-31T15:26:12;19.40;99.90
23556;DHT22;11956;53.184;8.578;2023-07-31T15:29:13;19.40;99.90
23556;DHT22;11956;53.184;8.578;2023-07-31T15:32:20;19.50;99.90
23556;DHT22;11956;53.184;8.578;2023-07-31T15:35:22;19.40;99.90
23556;DHT22;11956;53.184;8.578;2023-07-31T15:38:23;19.50;99.90
23556;DHT22;11956;53.184;8.578;2023-07-31T15:41:24;19.60;99.90
23556;DHT22;11956;53.184;8.578;2023-07-31T15:44:25;19.50;99.90
23556;DHT22;11956;53.184;8.578;2023-07-31T15:47:27;19.60;99.90
23556;DHT22;11956;53.184;8.578;2023-07-31T15:50:27;19.50;99.90
23556;DHT22;11956;53.184;8.578;2023-07-31T15:53:29;19.60;99.90
23556;DHT22;11956;53.184;8.578;2023-07-31T15:56:30;19.80;99.90
23556;DHT22;11956;53.184;8.578;2023-07-31T15:59:31;19.70;99.90
23556;DHT22;11956;53.184;8.578;2023-07-31T16:02:34;19.60;99.90
23556;DHT22;11956;53.184;8.578;2023-07-31T16:05:35;19.50;99.90
23556;DHT22;11956;53.184;8.578;2023-07-31T16:08:36;19.30;99.90
23556;DHT22;11956;53.184;8.578;2023-07-31T16:11:41;19.10;99.90
23556;DHT22;11956;53.184;8.578;2023-07-31T16:14:43;19.00;99.90
23556;DHT22;11956;53.184;8.578;2023-07-31T16:17:44;19.00;99.90
23556;DHT22;11956;53.184;8.578;2023-07-31T16:20:45;19.00;99.90
23556;DHT22;11956;53.184;8.578;2023-07-31T16:23:46;18.90;99.90
23556;DHT22;11956;53.184;8.578;2023-07-31T16:26:47;18.90;99.90
23556;DHT22;11956;53.184;8.578;2023-07-31T16:29:48;19.00;99.90
23556;DHT22;11956;53.184;8.578;2023-07-31T16:32:49;19.00;99.90
23556;DHT22;11956;53.184;8.578;2023-07-31T16:35:50;19.00;99.90
23556;DHT22;11956;53.184;8.578;2023-07-31T16:38:51;19.10;99.90
23556;DHT22;11956;53.184;8.578;2023-07-31T16:41:52;19.20;99.90
23556;DHT22;11956;53.184;8.578;2023-07-31T16:44:54;19.20;99.90
23556;DHT22;11956;53.184;8.578;2023-07-31T16:47:54;19.20;99.90
23556;DHT22;11956;53.184;8.578;2023-07-31T16:50:55;19.30;99.90
23556;DHT22;11956;53.184;8.578;2023-07-31T16:53:57;19.30;99.90
23556;DHT22;11956;53.184;8.578;2023-07-31T16:56:58;19.30;99.90
23556;DHT22;11956;53.184;8.578;2023-07-31T16:59:59;19.20;99.90
23556;DHT22;11956;53.184;8.578;2023-07-31T17:03:01;19.20;99.90
23556;DHT22;11956;53.184;8.578;2023-07-31T17:06:03;19.10;99.90
23556;DHT22;11956;53.184;8.578;2023-07-31T17:09:05;19.10;99.90
23556;DHT22;11956;53.184;8.578;2023-07-31T17:12:06;19.00;99.90
23556;DHT22;11956;53.184;8.578;2023-07-31T17:15:07;19.10;99.90
23556;DHT22;11956;53.184;8.578;2023-07-31T17:18:09;19.00;99.90
23556;DHT22;11956;53.184;8.578;2023-07-31T17:21:10;19.00;99.90
23556;DHT22;11956;53.184;8.578;2023-07-31T17:24:11;19.00;99.90
23556;DHT22;11956;53.184;8.578;2023-07-31T17:27:12;19.00;99.90
23556;DHT22;11956;53.184;8.578;2023-07-31T17:30:13;18.90;99.90
23556;DHT22;11956;53.184;8.578;2023-07-31T17:33:14;18.90;99.90
23556;DHT22;11956;53.184;8.578;2023-07-31T17:36:15;18.80;99.90
23556;DHT22;11956;53.184;8.578;2023-07-31T17:39:16;18.90;99.90
23556;DHT22;11956;53.184;8.578;2023-07-31T17:42:17;18.80;99.90
23556;DHT22;11956;53.184;8.578;2023-07-31T17:45:18;18.70;99.90
23556;DHT22;11956;53.184;8.578;2023-07-31T17:48:19;18.70;99.90
23556;DHT22;11956;53.184;8.578;2023-07-31T17:51:20;18.70;99.90
23556;DHT22;11956;53.184;8.578;2023-07-31T17:54:21;18.70;99.90
23556;DHT22;11956;53.184;8.578;2023-07-31T17:57:23;18.60;99.90
23556;DHT22;11956;53.184;8.578;2023-07-31T18:00:24;18.50;99.90
23556;DHT22;11956;53.184;8.578;2023-07-31T18:03:25;18.30;99.90
23556;DHT22;11956;53.184;8.578;2023-07-31T18:06:26;18.30;99.90
23556;DHT22;11956;53.184;8.578;2023-07-31T18:09:27;18.30;99.90
23556;DHT22;11956;53.184;8.578;2023-07-31T18:12:28;18.20;99.90
23556;DHT22;11956;53.184;8.578;2023-07-31T18:15:29;18.20;99.90
23556;DHT22;11956;53.184;8.578;2023-07-31T18:18:30;18.20;99.90
23556;DHT22;11956;53.184;8.578;2023-07-31T18:21:31;18.10;99.90
23556;DHT22;11956;53.184;8.578;2023-07-31T18:24:34;18.10;99.90
23556;DHT22;11956;53.184;8.578;2023-07-31T18:27:35;18.10;99.90
23556;DHT22;11956;53.184;8.578;2023-07-31T18:30:36;18.00;99.90
23556;DHT22;11956;53.184;8.578;2023-07-31T18:33:37;18.00;99.90
23556;DHT22;11956;53.184;8.578;2023-07-31T18:36:38;18.00;99.90
23556;DHT22;11956;53.184;8.578;2023-07-31T18:39:41;18.00;99.90
23556;DHT22;11956;53.184;8.578;2023-07-31T18:42:42;18.00;99.90
23556;DHT22;11956;53.184;8.578;2023-07-31T18:45:43;18.00;99.90
23556;DHT22;11956;53.184;8.578;2023-07-31T18:48:44;18.00;99.90
23556;DHT22;11956;53.184;8.578;2023-07-31T18:51:45;17.90;99.90
23556;DHT22;11956;53.184;8.578;2023-07-31T18:54:47;17.90;99.90
23556;DHT22;11956;53.184;8.578;2023-07-31T18:57:49;17.70;99.90
23556;DHT22;11956;53.184;8.578;2023-07-31T19:00:50;17.70;99.90
23556;DHT22;11956;53.184;8.578;2023-07-31T19:03:51;17.60;99.90
23556;DHT22;11956;53.184;8.578;2023-07-31T19:06:52;17.60;99.90
23556;DHT22;11956;53.184;8.578;2023-07-31T19:09:53;17.60;99.90
23556;DHT22;11956;53.184;8.578;2023-07-31T19:12:54;17.50;99.90
23556;DHT22;11956;53.184;8.578;2023-07-31T19:15:55;17.50;99.90
23556;DHT22;11956;53.184;8.578;2023-07-31T19:18:57;17.50;99.90